sensor_id;sensor_type;location;lat;lon;timestamp;P1;durP1;ratioP1;P2;durP2;ratioP2
69280;SDS011;56392;51.082;17.080;2024-01-06T00:00:05;50.53;;;18.63;;
69280;SDS011;56392;51.082;17.080;2024-01-06T00:05:50;50.57;;;18.57;;
69280;SDS011;56392;51.082;17.080;2024-01-06T00:11:15;49.95;;;18.70;;
69280;SDS011;56392;51.082;17.080;2024-01-06T00:16:38;46.93;;;17.80;;
69280;SDS011;56392;51.082;17.080;2024-01-06T00:22:02;49.67;;;17.47;;
69280;SDS011;56392;51.082;17.080;2024-01-06T00:27:26;41.97;;;17.70;;
69280;SDS011;56392;51.082;17.080;2024-01-06T00:32:50;49.17;;;18.73;;
69280;SDS011;56392;51.082;17.080;2024-01-06T00:38:14;47.13;;;17.67;;
69280;SDS011;56392;51.082;17.080;2024-01-06T00:43:37;43.17;;;17.13;;
69280;SDS011;56392;51.082;17.080;2024-01-06T00:49:00;47.72;;;17.08;;
69280;SDS011;56392;51.082;17.080;2024-01-06T00:54:25;49.30;;;17.43;;
69280;SDS011;56392;51.082;17.080;2024-01-06T00:59:48;43.92;;;17.60;;
69280;SDS011;56392;51.082;17.080;2024-01-06T01:05:12;40.67;;;16.37;;
69280;SDS011;56392;51.082;17.080;2024-01-06T01:10:36;40.73;;;16.37;;
69280;SDS011;56392;51.082;17.080;2024-01-06T01:15:59;44.90;;;18.33;;
69280;SDS011;56392;51.082;17.080;2024-01-06T01:21:25;42.80;;;17.40;;
69280;SDS011;56392;51.082;17.080;2024-01-06T01:26:50;47.07;;;18.10;;
69280;SDS011;56392;51.082;17.080;2024-01-06T01:32:14;49.00;;;17.58;;
69280;SDS011;56392;51.082;17.080;2024-01-06T01:37:39;48.65;;;17.67;;
69280;SDS011;56392;51.082;17.080;2024-01-06T01:43:03;46.00;;;16.60;;
69280;SDS011;56392;51.082;17.080;2024-01-06T01:48:28;45.97;;;18.17;;
69280;SDS011;56392;51.082;17.080;2024-01-06T01:53:52;45.27;;;17.40;;
69280;SDS011;56392;51.082;17.080;2024-01-06T01:59:18;43.30;;;18.10;;
69280;SDS011;56392;51.082;17.080;2024-01-06T02:04:41;42.25;;;17.10;;
69280;SDS011;56392;51.082;17.080;2024-01-06T02:10:06;46.23;;;18.27;;
69280;SDS011;56392;51.082;17.080;2024-01-06T02:15:31;50.30;;;19.03;;
69280;SDS011;56392;51.082;17.080;2024-01-06T02:20:57;51.13;;;19.75;;
69280;SDS011;56392;51.082;17.080;2024-01-06T02:26:22;45.70;;;18.70;;
69280;SDS011;56392;51.082;17.080;2024-01-06T02:31:45;48.20;;;17.63;;
69280;SDS011;56392;51.082;17.080;2024-01-06T02:37:10;48.67;;;18.55;;
69280;SDS011;56392;51.082;17.080;2024-01-06T02:42:35;47.53;;;19.23;;
69280;SDS011;56392;51.082;17.080;2024-01-06T02:47:59;45.07;;;17.77;;
69280;SDS011;56392;51.082;17.080;2024-01-06T02:53:23;42.80;;;17.35;;
69280;SDS011;56392;51.082;17.080;2024-01-06T02:58:47;42.73;;;17.50;;
69280;SDS011;56392;51.082;17.080;2024-01-06T03:04:12;43.20;;;16.50;;
69280;SDS011;56392;51.082;17.080;2024-01-06T03:09:35;46.20;;;17.67;;
69280;SDS011;56392;51.082;17.080;2024-01-06T03:15:02;44.08;;;16.23;;
69280;SDS011;56392;51.082;17.080;2024-01-06T03:20:25;46.60;;;16.10;;
69280;SDS011;56392;51.082;17.080;2024-01-06T03:25:48;40.15;;;16.70;;
69280;SDS011;56392;51.082;17.080;2024-01-06T03:31:13;38.57;;;15.90;;
69280;SDS011;56392;51.082;17.080;2024-01-06T03:36:36;43.00;;;16.80;;
69280;SDS011;56392;51.082;17.080;2024-01-06T03:42:00;42.63;;;16.88;;
69280;SDS011;56392;51.082;17.080;2024-01-06T03:47:25;41.07;;;15.50;;
69280;SDS011;56392;51.082;17.080;2024-01-06T03:52:48;40.43;;;15.53;;
69280;SDS011;56392;51.082;17.080;2024-01-06T03:58:12;40.17;;;16.10;;
69280;SDS011;56392;51.082;17.080;2024-01-06T04:03:38;43.83;;;15.90;;
69280;SDS011;56392;51.082;17.080;2024-01-06T04:09:02;43.23;;;16.27;;
69280;SDS011;56392;51.082;17.080;2024-01-06T04:14:27;40.75;;;16.00;;
69280;SDS011;56392;51.082;17.080;2024-01-06T04:19:52;40.03;;;16.57;;
69280;SDS011;56392;51.082;17.080;2024-01-06T04:25:15;46.20;;;16.73;;
69280;SDS011;56392;51.082;17.080;2024-01-06T04:30:40;45.53;;;16.13;;
69280;SDS011;56392;51.082;17.080;2024-01-06T04:36:05;42.80;;;17.13;;
69280;SDS011;56392;51.082;17.080;2024-01-06T04:41:29;43.43;;;16.60;;
69280;SDS011;56392;51.082;17.080;2024-01-06T04:46:52;38.92;;;16.25;;
69280;SDS011;56392;51.082;17.080;2024-01-06T04:52:18;46.47;;;16.97;;
69280;SDS011;56392;51.082;17.080;2024-01-06T04:57:41;44.07;;;16.93;;
69280;SDS011;56392;51.082;17.080;2024-01-06T05:03:04;47.97;;;17.17;;
69280;SDS011;56392;51.082;17.080;2024-01-06T05:08:29;42.60;;;15.87;;
69280;SDS011;56392;51.082;17.080;2024-01-06T05:13:53;50.73;;;16.40;;
69280;SDS011;56392;51.082;17.080;2024-01-06T05:19:16;46.53;;;17.25;;
69280;SDS011;56392;51.082;17.080;2024-01-06T05:24:44;48.27;;;15.97;;
69280;SDS011;56392;51.082;17.080;2024-01-06T05:30:08;42.83;;;16.03;;
69280;SDS011;56392;51.082;17.080;2024-01-06T05:35:32;38.67;;;16.05;;
69280;SDS011;56392;51.082;17.080;2024-01-06T05:40:57;34.97;;;14.87;;
69280;SDS011;56392;51.082;17.080;2024-01-06T05:46:22;38.20;;;14.50;;
69280;SDS011;56392;51.082;17.080;2024-01-06T05:51:45;35.75;;;14.48;;
69280;SDS011;56392;51.082;17.080;2024-01-06T05:57:10;39.40;;;14.27;;
69280;SDS011;56392;51.082;17.080;2024-01-06T06:02:34;38.47;;;15.07;;
69280;SDS011;56392;51.082;17.080;2024-01-06T06:08:00;39.25;;;14.52;;
69280;SDS011;56392;51.082;17.080;2024-01-06T06:13:25;41.67;;;15.70;;
69280;SDS011;56392;51.082;17.080;2024-01-06T06:18:48;37.37;;;14.17;;
69280;SDS011;56392;51.082;17.080;2024-01-06T06:24:11;38.45;;;14.65;;
69280;SDS011;56392;51.082;17.080;2024-01-06T06:29:37;40.97;;;14.23;;
69280;SDS011;56392;51.082;17.080;2024-01-06T06:35:00;39.63;;;15.23;;
69280;SDS011;56392;51.082;17.080;2024-01-06T06:40:24;34.08;;;13.82;;
69280;SDS011;56392;51.082;17.080;2024-01-06T06:45:49;35.35;;;13.40;;
69280;SDS011;56392;51.082;17.080;2024-01-06T06:51:12;34.53;;;13.97;;
69280;SDS011;56392;51.082;17.080;2024-01-06T06:56:35;36.30;;;13.95;;
69280;SDS011;56392;51.082;17.080;2024-01-06T07:02:00;36.70;;;13.40;;
69280;SDS011;56392;51.082;17.080;2024-01-06T07:07:24;35.77;;;13.37;;
69280;SDS011;56392;51.082;17.080;2024-01-06T07:12:47;33.15;;;13.27;;
69280;SDS011;56392;51.082;17.080;2024-01-06T07:18:13;35.07;;;13.53;;
69280;SDS011;56392;51.082;17.080;2024-01-06T07:23:37;33.85;;;13.07;;
69280;SDS011;56392;51.082;17.080;2024-01-06T07:29:01;35.10;;;13.35;;
69280;SDS011;56392;51.082;17.080;2024-01-06T07:34:26;35.10;;;12.50;;
69280;SDS011;56392;51.082;17.080;2024-01-06T07:39:49;31.40;;;12.15;;
69280;SDS011;56392;51.082;17.080;2024-01-06T07:45:14;29.98;;;12.02;;
69280;SDS011;56392;51.082;17.080;2024-01-06T07:50:39;28.40;;;11.67;;
69280;SDS011;56392;51.082;17.080;2024-01-06T07:56:02;36.83;;;12.07;;
69280;SDS011;56392;51.082;17.080;2024-01-06T08:01:26;32.10;;;13.35;;
69280;SDS011;56392;51.082;17.080;2024-01-06T08:06:51;30.40;;;13.10;;
69280;SDS011;56392;51.082;17.080;2024-01-06T08:12:14;34.13;;;13.77;;
69280;SDS011;56392;51.082;17.080;2024-01-06T08:17:38;31.40;;;12.38;;
69280;SDS011;56392;51.082;17.080;2024-01-06T08:23:05;32.40;;;13.80;;
69280;SDS011;56392;51.082;17.080;2024-01-06T08:28:30;34.08;;;13.23;;
69280;SDS011;56392;51.082;17.080;2024-01-06T08:33:54;33.45;;;13.18;;
69280;SDS011;56392;51.082;17.080;2024-01-06T08:39:20;32.30;;;12.47;;
69280;SDS011;56392;51.082;17.080;2024-01-06T08:44:47;32.08;;;12.57;;
69280;SDS011;56392;51.082;17.080;2024-01-06T08:50:13;32.87;;;11.73;;
69280;SDS011;56392;51.082;17.080;2024-01-06T08:55:39;31.33;;;12.17;;
69280;SDS011;56392;51.082;17.080;2024-01-06T09:01:02;31.83;;;13.15;;
69280;SDS011;56392;51.082;17.080;2024-01-06T09:06:25;33.90;;;13.17;;
69280;SDS011;56392;51.082;17.080;2024-01-06T09:11:50;36.13;;;12.87;;
69280;SDS011;56392;51.082;17.080;2024-01-06T09:17:13;37.13;;;13.48;;
69280;SDS011;56392;51.082;17.080;2024-01-06T09:22:37;30.90;;;13.20;;
69280;SDS011;56392;51.082;17.080;2024-01-06T09:28:02;32.03;;;13.20;;
69280;SDS011;56392;51.082;17.080;2024-01-06T09:33:26;30.27;;;12.77;;
69280;SDS011;56392;51.082;17.080;2024-01-06T09:38:50;31.73;;;13.10;;
69280;SDS011;56392;51.082;17.080;2024-01-06T09:44:14;33.40;;;13.17;;
69280;SDS011;56392;51.082;17.080;2024-01-06T09:49:38;34.17;;;13.27;;
69280;SDS011;56392;51.082;17.080;2024-01-06T09:55:02;35.67;;;13.70;;
69280;SDS011;56392;51.082;17.080;2024-01-06T10:00:32;29.87;;;12.53;;
69280;SDS011;56392;51.082;17.080;2024-01-06T10:05:56;31.30;;;12.82;;
69280;SDS011;56392;51.082;17.080;2024-01-06T10:11:22;35.67;;;13.70;;
69280;SDS011;56392;51.082;17.080;2024-01-06T10:16:46;33.00;;;13.63;;
69280;SDS011;56392;51.082;17.080;2024-01-06T10:22:11;33.67;;;14.00;;
69280;SDS011;56392;51.082;17.080;2024-01-06T10:27:34;33.95;;;14.20;;
69280;SDS011;56392;51.082;17.080;2024-01-06T10:33:00;34.47;;;13.70;;
69280;SDS011;56392;51.082;17.080;2024-01-06T10:38:23;36.78;;;14.73;;
69280;SDS011;56392;51.082;17.080;2024-01-06T10:43:49;32.83;;;14.30;;
69280;SDS011;56392;51.082;17.080;2024-01-06T10:49:15;35.17;;;14.20;;
69280;SDS011;56392;51.082;17.080;2024-01-06T10:54:43;33.63;;;13.57;;
69280;SDS011;56392;51.082;17.080;2024-01-06T11:00:12;33.65;;;14.35;;
69280;SDS011;56392;51.082;17.080;2024-01-06T11:05:37;32.50;;;13.03;;
69280;SDS011;56392;51.082;17.080;2024-01-06T11:11:04;30.55;;;12.93;;
69280;SDS011;56392;51.082;17.080;2024-01-06T11:16:33;34.72;;;13.30;;
69280;SDS011;56392;51.082;17.080;2024-01-06T11:21:58;33.27;;;12.70;;
69280;SDS011;56392;51.082;17.080;2024-01-06T11:27:49;34.13;;;14.13;;
69280;SDS011;56392;51.082;17.080;2024-01-06T11:33:18;36.17;;;14.45;;
69280;SDS011;56392;51.082;17.080;2024-01-06T11:38:43;32.60;;;13.60;;
69280;SDS011;56392;51.082;17.080;2024-01-06T11:44:09;35.85;;;14.52;;
69280;SDS011;56392;51.082;17.080;2024-01-06T11:49:33;42.83;;;16.40;;
69280;SDS011;56392;51.082;17.080;2024-01-06T11:54:58;43.37;;;16.27;;
69280;SDS011;56392;51.082;17.080;2024-01-06T12:00:22;40.17;;;17.52;;
69280;SDS011;56392;51.082;17.080;2024-01-06T12:05:46;43.67;;;17.40;;
69280;SDS011;56392;51.082;17.080;2024-01-06T12:11:23;43.13;;;17.50;;
69280;SDS011;56392;51.082;17.080;2024-01-06T12:16:46;42.10;;;17.95;;
69280;SDS011;56392;51.082;17.080;2024-01-06T12:22:10;44.93;;;18.23;;
69280;SDS011;56392;51.082;17.080;2024-01-06T12:27:37;49.77;;;19.47;;
69280;SDS011;56392;51.082;17.080;2024-01-06T12:33:06;48.72;;;19.40;;
69280;SDS011;56392;51.082;17.080;2024-01-06T12:38:30;50.37;;;19.30;;
69280;SDS011;56392;51.082;17.080;2024-01-06T12:43:55;42.87;;;16.73;;
69280;SDS011;56392;51.082;17.080;2024-01-06T12:49:18;44.90;;;17.65;;
69280;SDS011;56392;51.082;17.080;2024-01-06T12:54:44;45.93;;;17.60;;
69280;SDS011;56392;51.082;17.080;2024-01-06T13:00:09;47.30;;;18.23;;
69280;SDS011;56392;51.082;17.080;2024-01-06T13:05:33;48.88;;;19.33;;
69280;SDS011;56392;51.082;17.080;2024-01-06T13:10:56;47.93;;;18.97;;
69280;SDS011;56392;51.082;17.080;2024-01-06T13:16:21;45.47;;;18.47;;
69280;SDS011;56392;51.082;17.080;2024-01-06T13:21:45;46.85;;;18.85;;
69280;SDS011;56392;51.082;17.080;2024-01-06T13:27:08;47.87;;;18.27;;
69280;SDS011;56392;51.082;17.080;2024-01-06T13:32:33;49.80;;;18.43;;
69280;SDS011;56392;51.082;17.080;2024-01-06T13:37:56;49.17;;;19.33;;
69280;SDS011;56392;51.082;17.080;2024-01-06T13:43:19;45.47;;;18.00;;
69280;SDS011;56392;51.082;17.080;2024-01-06T13:48:44;45.27;;;18.10;;
69280;SDS011;56392;51.082;17.080;2024-01-06T13:54:08;47.85;;;18.45;;
69280;SDS011;56392;51.082;17.080;2024-01-06T13:59:32;47.60;;;17.67;;
69280;SDS011;56392;51.082;17.080;2024-01-06T14:05:00;46.93;;;17.30;;
69280;SDS011;56392;51.082;17.080;2024-01-06T14:10:23;43.92;;;16.88;;
69280;SDS011;56392;51.082;17.080;2024-01-06T14:15:47;46.67;;;17.23;;
69280;SDS011;56392;51.082;17.080;2024-01-06T14:21:12;40.63;;;16.87;;
69280;SDS011;56392;51.082;17.080;2024-01-06T14:26:36;45.53;;;15.85;;
69280;SDS011;56392;51.082;17.080;2024-01-06T14:32:01;46.23;;;17.33;;
69280;SDS011;56392;51.082;17.080;2024-01-06T14:37:26;40.13;;;15.83;;
69280;SDS011;56392;51.082;17.080;2024-01-06T14:42:49;45.75;;;17.55;;
69280;SDS011;56392;51.082;17.080;2024-01-06T14:48:12;44.93;;;16.57;;
69280;SDS011;56392;51.082;17.080;2024-01-06T14:53:37;46.65;;;17.08;;
69280;SDS011;56392;51.082;17.080;2024-01-06T14:59:00;44.75;;;17.25;;
69280;SDS011;56392;51.082;17.080;2024-01-06T15:04:24;44.10;;;16.60;;
69280;SDS011;56392;51.082;17.080;2024-01-06T15:09:49;45.20;;;16.13;;
69280;SDS011;56392;51.082;17.080;2024-01-06T15:15:16;47.20;;;17.33;;
69280;SDS011;56392;51.082;17.080;2024-01-06T15:20:39;45.23;;;17.20;;
69280;SDS011;56392;51.082;17.080;2024-01-06T15:26:05;45.60;;;18.20;;
69280;SDS011;56392;51.082;17.080;2024-01-06T15:31:29;45.10;;;16.90;;
69280;SDS011;56392;51.082;17.080;2024-01-06T15:36:53;43.50;;;17.20;;
69280;SDS011;56392;51.082;17.080;2024-01-06T15:42:20;45.13;;;16.67;;
69280;SDS011;56392;51.082;17.080;2024-01-06T15:47:44;41.73;;;17.17;;
69280;SDS011;56392;51.082;17.080;2024-01-06T15:53:09;43.70;;;16.10;;
69280;SDS011;56392;51.082;17.080;2024-01-06T15:58:37;47.55;;;16.05;;
69280;SDS011;56392;51.082;17.080;2024-01-06T16:04:00;44.43;;;15.57;;
69280;SDS011;56392;51.082;17.080;2024-01-06T16:09:25;44.65;;;16.55;;
69280;SDS011;56392;51.082;17.080;2024-01-06T16:14:50;43.30;;;15.90;;
69280;SDS011;56392;51.082;17.080;2024-01-06T16:20:13;47.33;;;16.57;;
69280;SDS011;56392;51.082;17.080;2024-01-06T16:25:36;46.65;;;16.52;;
69280;SDS011;56392;51.082;17.080;2024-01-06T16:31:03;42.30;;;15.43;;
69280;SDS011;56392;51.082;17.080;2024-01-06T16:36:26;47.23;;;15.60;;
69280;SDS011;56392;51.082;17.080;2024-01-06T16:41:50;39.55;;;16.00;;
69280;SDS011;56392;51.082;17.080;2024-01-06T16:47:15;44.23;;;16.20;;
69280;SDS011;56392;51.082;17.080;2024-01-06T16:52:38;46.10;;;16.13;;
69280;SDS011;56392;51.082;17.080;2024-01-06T16:58:01;35.22;;;15.07;;
69280;SDS011;56392;51.082;17.080;2024-01-06T17:03:26;41.03;;;15.43;;
69280;SDS011;56392;51.082;17.080;2024-01-06T17:08:49;41.90;;;15.35;;
69280;SDS011;56392;51.082;17.080;2024-01-06T17:14:12;40.90;;;15.48;;
69280;SDS011;56392;51.082;17.080;2024-01-06T17:19:38;39.20;;;14.13;;
69280;SDS011;56392;51.082;17.080;2024-01-06T17:25:01;40.15;;;14.77;;
69280;SDS011;56392;51.082;17.080;2024-01-06T17:30:25;36.90;;;14.45;;
69280;SDS011;56392;51.082;17.080;2024-01-06T17:35:50;40.33;;;14.40;;
69280;SDS011;56392;51.082;17.080;2024-01-06T17:41:14;36.35;;;14.27;;
69280;SDS011;56392;51.082;17.080;2024-01-06T17:46:37;39.40;;;13.90;;
69280;SDS011;56392;51.082;17.080;2024-01-06T17:52:03;34.67;;;12.63;;
69280;SDS011;56392;51.082;17.080;2024-01-06T17:57:26;34.60;;;13.45;;
69280;SDS011;56392;51.082;17.080;2024-01-06T18:02:56;34.20;;;12.97;;
69280;SDS011;56392;51.082;17.080;2024-01-06T18:08:21;34.38;;;12.90;;
69280;SDS011;56392;51.082;17.080;2024-01-06T18:13:45;34.33;;;13.82;;
69280;SDS011;56392;51.082;17.080;2024-01-06T18:19:10;30.53;;;12.60;;
69280;SDS011;56392;51.082;17.080;2024-01-06T18:24:37;34.28;;;13.10;;
69280;SDS011;56392;51.082;17.080;2024-01-06T18:30:01;29.50;;;11.20;;
69280;SDS011;56392;51.082;17.080;2024-01-06T18:35:25;29.43;;;11.67;;
69280;SDS011;56392;51.082;17.080;2024-01-06T18:40:49;31.13;;;12.05;;
69280;SDS011;56392;51.082;17.080;2024-01-06T18:46:14;25.63;;;10.20;;
69280;SDS011;56392;51.082;17.080;2024-01-06T18:51:42;28.20;;;10.03;;
69280;SDS011;56392;51.082;17.080;2024-01-06T18:57:08;29.27;;;10.57;;
69280;SDS011;56392;51.082;17.080;2024-01-06T19:02:35;27.20;;;10.67;;
69280;SDS011;56392;51.082;17.080;2024-01-06T19:07:58;26.98;;;10.27;;
69280;SDS011;56392;51.082;17.080;2024-01-06T19:13:23;24.92;;;10.48;;
69280;SDS011;56392;51.082;17.080;2024-01-06T19:18:48;24.03;;;9.43;;
69280;SDS011;56392;51.082;17.080;2024-01-06T19:24:11;24.55;;;10.00;;
69280;SDS011;56392;51.082;17.080;2024-01-06T19:29:35;23.77;;;10.03;;
69280;SDS011;56392;51.082;17.080;2024-01-06T19:35:03;24.73;;;9.27;;
69280;SDS011;56392;51.082;17.080;2024-01-06T19:40:29;26.08;;;9.18;;
69280;SDS011;56392;51.082;17.080;2024-01-06T19:45:53;22.17;;;8.87;;
69280;SDS011;56392;51.082;17.080;2024-01-06T19:51:22;21.33;;;8.70;;
69280;SDS011;56392;51.082;17.080;2024-01-06T19:56:45;22.50;;;8.33;;
69280;SDS011;56392;51.082;17.080;2024-01-06T20:02:10;21.15;;;8.50;;
69280;SDS011;56392;51.082;17.080;2024-01-06T20:07:35;22.15;;;8.30;;
69280;SDS011;56392;51.082;17.080;2024-01-06T20:12:59;22.07;;;7.77;;
69280;SDS011;56392;51.082;17.080;2024-01-06T20:18:25;19.60;;;7.00;;
69280;SDS011;56392;51.082;17.080;2024-01-06T20:23:53;16.73;;;7.00;;
69280;SDS011;56392;51.082;17.080;2024-01-06T20:29:17;20.93;;;7.97;;
69280;SDS011;56392;51.082;17.080;2024-01-06T20:34:49;23.45;;;8.25;;
69280;SDS011;56392;51.082;17.080;2024-01-06T20:40:14;19.27;;;7.77;;
69280;SDS011;56392;51.082;17.080;2024-01-06T20:45:39;20.98;;;7.65;;
69280;SDS011;56392;51.082;17.080;2024-01-06T20:51:05;20.63;;;8.07;;
69280;SDS011;56392;51.082;17.080;2024-01-06T20:56:35;21.00;;;8.33;;
69280;SDS011;56392;51.082;17.080;2024-01-06T21:01:59;20.55;;;7.82;;
69280;SDS011;56392;51.082;17.080;2024-01-06T21:07:27;20.20;;;7.97;;
69280;SDS011;56392;51.082;17.080;2024-01-06T21:12:51;22.25;;;8.02;;
69280;SDS011;56392;51.082;17.080;2024-01-06T21:18:14;23.05;;;8.65;;
69280;SDS011;56392;51.082;17.080;2024-01-06T21:23:38;20.07;;;8.00;;
69280;SDS011;56392;51.082;17.080;2024-01-06T21:29:01;18.02;;;7.40;;
69280;SDS011;56392;51.082;17.080;2024-01-06T21:34:27;19.90;;;7.43;;
69280;SDS011;56392;51.082;17.080;2024-01-06T21:39:51;22.67;;;8.05;;
69280;SDS011;56392;51.082;17.080;2024-01-06T21:45:14;19.00;;;7.75;;
69280;SDS011;56392;51.082;17.080;2024-01-06T21:50:39;18.27;;;7.10;;
69280;SDS011;56392;51.082;17.080;2024-01-06T21:56:05;20.92;;;7.85;;
69280;SDS011;56392;51.082;17.080;2024-01-06T22:01:29;22.40;;;7.90;;
69280;SDS011;56392;51.082;17.080;2024-01-06T22:06:53;20.77;;;7.90;;
69280;SDS011;56392;51.082;17.080;2024-01-06T22:12:21;19.20;;;8.13;;
69280;SDS011;56392;51.082;17.080;2024-01-06T22:17:47;19.63;;;7.23;;
69280;SDS011;56392;51.082;17.080;2024-01-06T22:23:10;20.30;;;7.43;;
69280;SDS011;56392;51.082;17.080;2024-01-06T22:28:35;17.40;;;7.60;;
69280;SDS011;56392;51.082;17.080;2024-01-06T22:33:58;21.27;;;8.02;;
69280;SDS011;56392;51.082;17.080;2024-01-06T22:39:23;24.02;;;6.97;;
69280;SDS011;56392;51.082;17.080;2024-01-06T22:44:49;19.63;;;6.93;;
69280;SDS011;56392;51.082;17.080;2024-01-06T22:50:12;17.10;;;6.25;;
69280;SDS011;56392;51.082;17.080;2024-01-06T22:55:36;15.63;;;6.03;;
69280;SDS011;56392;51.082;17.080;2024-01-06T23:01:04;17.15;;;5.60;;
69280;SDS011;56392;51.082;17.080;2024-01-06T23:06:29;18.83;;;6.05;;
69280;SDS011;56392;51.082;17.080;2024-01-06T23:11:52;14.50;;;5.80;;
69280;SDS011;56392;51.082;17.080;2024-01-06T23:17:17;15.68;;;6.00;;
69280;SDS011;56392;51.082;17.080;2024-01-06T23:22:42;15.50;;;5.73;;
69280;SDS011;56392;51.082;17.080;2024-01-06T23:28:05;17.35;;;5.50;;
69280;SDS011;56392;51.082;17.080;2024-01-06T23:33:30;14.75;;;5.55;;
69280;SDS011;56392;51.082;17.080;2024-01-06T23:38:54;14.53;;;5.40;;
69280;SDS011;56392;51.082;17.080;2024-01-06T23:44:18;14.98;;;5.18;;
69280;SDS011;56392;51.082;17.080;2024-01-06T23:49:43;14.67;;;5.47;;
69280;SDS011;56392;51.082;17.080;2024-01-06T23:55:08;14.65;;;5.70;;
